createdAt,value
2019-05-18T00:01:26.148Z,8.90
2019-05-18T00:04:03.655Z,9.00
2019-05-18T00:06:40.513Z,8.90
2019-05-18T00:09:07.909Z,8.90
2019-05-18T00:11:35.253Z,9.00
2019-05-18T00:14:02.704Z,9.00
2019-05-18T00:16:30.020Z,9.00
2019-05-18T00:18:57.560Z,9.00
2019-05-18T00:21:24.761Z,9.10
2019-05-18T00:23:52.582Z,9.00
2019-05-18T00:26:29.307Z,9.00
2019-05-18T00:28:56.795Z,9.00
2019-05-18T00:31:24.108Z,9.00
2019-05-18T00:33:51.452Z,9.10
2019-05-18T00:36:19.226Z,9.20
2019-05-18T00:38:46.727Z,9.10
2019-05-18T00:41:14.031Z,9.20
2019-05-18T00:43:41.310Z,9.20
2019-05-18T00:46:08.663Z,9.20
2019-05-18T00:48:35.967Z,9.20
2019-05-18T00:51:03.310Z,9.20
2019-05-18T00:53:30.625Z,9.30
2019-05-18T00:55:57.956Z,9.30
2019-05-18T00:58:25.296Z,9.40
2019-05-18T01:00:52.532Z,9.40
2019-05-18T01:03:19.881Z,9.40
2019-05-18T01:05:47.435Z,9.40
2019-05-18T01:08:14.910Z,9.40
2019-05-18T01:10:43.212Z,9.30
2019-05-18T01:13:10.523Z,9.30
2019-05-18T01:15:37.879Z,9.40
2019-05-18T01:18:08.349Z,9.40
2019-05-18T01:20:35.745Z,9.40
2019-05-18T01:23:03.109Z,9.40
2019-05-18T01:25:30.440Z,9.50
2019-05-18T01:27:58.015Z,9.50
2019-05-18T01:30:33.497Z,9.50
2019-05-18T01:33:02.912Z,9.50
2019-05-18T01:35:30.420Z,9.50
2019-05-18T01:37:57.948Z,9.50
2019-05-18T01:40:25.297Z,9.50
2019-05-18T01:42:52.641Z,9.50
2019-05-18T01:45:20.326Z,9.50
2019-05-18T01:47:47.943Z,9.50
2019-05-18T01:50:18.261Z,9.50
2019-05-18T01:52:45.673Z,9.50
2019-05-18T01:55:14.946Z,9.50
2019-05-18T01:57:42.259Z,9.50
2019-05-18T02:00:10.129Z,9.60
2019-05-18T02:02:37.468Z,9.60
2019-05-18T02:05:05.082Z,9.50
2019-05-18T02:07:32.394Z,9.60
2019-05-18T02:09:59.723Z,9.60
2019-05-18T02:12:27.236Z,9.60
2019-05-18T02:14:54.695Z,9.60
2019-05-18T02:17:22.023Z,9.70
2019-05-18T02:19:49.417Z,9.60
2019-05-18T02:22:16.723Z,9.60
2019-05-18T02:24:43.988Z,9.70
2019-05-18T02:27:11.323Z,9.70
2019-05-18T02:29:38.656Z,9.70
2019-05-18T02:32:06.009Z,9.70
2019-05-18T02:34:33.355Z,9.70
2019-05-18T02:37:00.864Z,9.80
2019-05-18T02:39:28.443Z,9.70
2019-05-18T02:41:55.732Z,9.70
2019-05-18T02:44:23.015Z,9.70
2019-05-18T02:46:50.367Z,9.70
2019-05-18T02:49:17.913Z,9.70
2019-05-18T02:51:45.260Z,9.70
2019-05-18T02:54:12.582Z,9.80
2019-05-18T02:56:39.884Z,9.80
2019-05-18T02:59:07.157Z,9.80
2019-05-18T03:01:34.739Z,9.80
2019-05-18T03:04:02.082Z,9.80
2019-05-18T03:06:29.428Z,9.80
2019-05-18T03:08:56.938Z,9.80
2019-05-18T03:11:24.265Z,9.80
2019-05-18T03:13:51.586Z,9.80
2019-05-18T03:16:18.944Z,9.80
2019-05-18T03:18:46.225Z,9.80
2019-05-18T03:21:13.563Z,9.90
2019-05-18T03:23:40.920Z,9.90
2019-05-18T03:26:08.294Z,9.90
2019-05-18T03:28:35.613Z,10.00
2019-05-18T03:31:03.056Z,9.90
2019-05-18T03:33:30.809Z,9.90
2019-05-18T03:35:58.294Z,10.00
2019-05-18T03:38:25.621Z,10.00
2019-05-18T03:40:52.928Z,10.00
2019-05-18T03:43:20.412Z,10.00
2019-05-18T03:45:47.921Z,9.90
2019-05-18T03:48:15.414Z,9.90
2019-05-18T03:50:42.877Z,9.90
2019-05-18T03:53:10.280Z,9.90
2019-05-18T03:55:37.894Z,9.90
2019-05-18T03:58:05.433Z,10.00
2019-05-18T04:00:32.760Z,9.90
2019-05-18T04:03:00.107Z,10.00
2019-05-18T04:05:27.793Z,10.00
2019-05-18T04:07:55.347Z,10.00
2019-05-18T04:10:24.816Z,10.10
2019-05-18T04:12:52.561Z,10.00
2019-05-18T04:15:21.154Z,10.10
2019-05-18T04:17:48.830Z,10.20
2019-05-18T04:20:17.367Z,10.10
2019-05-18T04:22:45.122Z,10.10
2019-05-18T04:25:12.656Z,10.20
2019-05-18T04:27:39.972Z,10.20
2019-05-18T04:30:07.647Z,10.20
2019-05-18T04:32:35.151Z,10.20
2019-05-18T04:35:03.569Z,10.20
2019-05-18T04:37:40.001Z,10.20
2019-05-18T04:40:17.557Z,10.30
2019-05-18T04:42:57.930Z,10.30
2019-05-18T04:45:26.210Z,10.40
2019-05-18T04:47:53.626Z,10.40
2019-05-18T04:50:20.988Z,10.40
2019-05-18T04:52:48.867Z,10.30
2019-05-18T04:55:24.803Z,10.40
2019-05-18T04:57:54.276Z,10.40
2019-05-18T05:00:35.149Z,10.40
2019-05-18T05:03:02.616Z,10.40
2019-05-18T05:05:30.065Z,10.40
2019-05-18T05:07:57.638Z,10.40
2019-05-18T05:10:25.116Z,10.40
2019-05-18T05:12:52.464Z,10.50
2019-05-18T05:15:19.934Z,10.50
2019-05-18T05:17:47.640Z,10.50
2019-05-18T05:20:20.119Z,10.60
2019-05-18T05:22:49.629Z,10.60
2019-05-18T05:25:58.144Z,10.70
2019-05-18T05:28:37.199Z,10.70
2019-05-18T05:31:29.917Z,10.80
2019-05-18T05:34:19.859Z,10.80
2019-05-18T05:36:54.728Z,10.80
2019-05-18T05:39:35.929Z,10.80
2019-05-18T05:45:19.851Z,10.90
2019-05-18T05:47:51.657Z,10.90
2019-05-18T05:50:35.499Z,11.00
2019-05-18T05:55:57.250Z,11.00
2019-05-18T05:58:52.287Z,11.00
2019-05-18T06:01:34.091Z,11.10
2019-05-18T06:10:49.564Z,11.10
2019-05-18T06:13:21.443Z,11.30
2019-05-18T06:16:24.695Z,11.30
2019-05-18T06:18:53.333Z,11.30
2019-05-18T06:21:35.071Z,11.20
2019-05-18T06:24:07.018Z,11.20
2019-05-18T06:26:50.999Z,11.20
2019-05-18T06:29:45.173Z,11.20
2019-05-18T06:32:15.713Z,11.20
2019-05-18T06:34:52.466Z,11.20
2019-05-18T06:37:30.455Z,11.30
2019-05-18T06:40:16.128Z,11.20
2019-05-18T06:42:50.524Z,11.30
2019-05-18T06:45:18.376Z,11.30
2019-05-18T06:47:50.672Z,11.20
2019-05-18T06:50:23.280Z,11.20
2019-05-18T06:52:51.197Z,11.10
2019-05-18T06:55:18.570Z,11.10
2019-05-18T07:00:31.437Z,11.20
2019-05-18T07:03:33.323Z,11.30
2019-05-18T07:06:03.281Z,11.30
2019-05-18T07:08:31.349Z,11.30
2019-05-18T07:10:58.784Z,11.30
2019-05-18T07:13:26.219Z,11.20
2019-05-18T07:16:04.518Z,11.20
2019-05-18T07:18:37.786Z,11.30
2019-05-18T07:21:50.856Z,11.40
2019-05-18T07:24:46.359Z,11.40
2019-05-18T07:27:13.857Z,11.40
2019-05-18T07:29:41.912Z,11.30
2019-05-18T07:32:21.006Z,11.30
2019-05-18T07:34:51.857Z,11.40
2019-05-18T07:37:32.712Z,11.40
2019-05-18T07:40:07.738Z,11.40
2019-05-18T07:43:05.516Z,11.40
2019-05-18T07:45:53.268Z,11.50
2019-05-18T07:48:39.632Z,11.50
2019-05-18T07:51:08.144Z,11.60
2019-05-18T07:57:05.010Z,11.80
2019-05-18T08:00:02.937Z,12.00
2019-05-18T08:02:38.917Z,12.00
2019-05-18T08:05:11.088Z,12.00
2019-05-18T08:07:39.095Z,12.10
2019-05-18T08:10:13.328Z,12.30
2019-05-18T08:12:40.991Z,12.50
2019-05-18T08:15:09.929Z,12.60
2019-05-18T08:17:38.589Z,12.70
2019-05-18T08:20:06.399Z,12.90
2019-05-18T08:22:34.297Z,12.80
2019-05-18T08:25:12.471Z,12.60
2019-05-18T08:27:44.553Z,12.50
2019-05-18T08:30:49.863Z,12.50
2019-05-18T08:33:17.903Z,12.50
2019-05-18T08:35:45.581Z,12.60
2019-05-18T08:38:13.107Z,12.80
2019-05-18T08:40:41.823Z,12.80
2019-05-18T08:43:16.204Z,12.90
2019-05-18T08:45:48.661Z,13.10
2019-05-18T08:55:12.038Z,13.60
2019-05-18T08:57:58.507Z,13.50
2019-05-18T09:00:26.632Z,13.30
2019-05-18T09:02:56.031Z,13.00
2019-05-18T09:05:24.267Z,12.90
2019-05-18T09:07:52.341Z,13.00
2019-05-18T09:10:20.753Z,13.00
2019-05-18T09:12:59.337Z,12.90
2019-05-18T09:15:32.221Z,13.10
2019-05-18T09:18:05.185Z,13.30
2019-05-18T09:20:36.130Z,13.30
2019-05-18T09:27:26.847Z,13.60
2019-05-18T09:30:03.612Z,13.80
2019-05-18T09:36:49.397Z,14.20
2019-05-18T09:54:50.387Z,14.90
2019-05-18T09:58:41.052Z,14.70
2019-05-18T10:01:09.318Z,14.70
2019-05-18T10:03:38.693Z,14.40
2019-05-18T10:07:05.852Z,14.30
2019-05-18T10:14:25.067Z,14.60
2019-05-18T10:38:35.735Z,15.00
2019-05-18T10:48:27.814Z,14.90
2019-05-18T11:02:53.399Z,15.20
2019-05-18T11:17:17.958Z,15.70
2019-05-18T11:20:18.295Z,15.60
2019-05-18T11:34:28.861Z,15.50
2019-05-18T11:41:31.743Z,15.70
2019-05-18T11:45:14.172Z,15.70
2019-05-18T11:58:40.020Z,16.00
2019-05-18T12:06:06.992Z,15.60
2019-05-18T12:08:35.284Z,15.60
2019-05-18T12:16:17.442Z,16.30
2019-05-18T12:22:48.493Z,16.70
2019-05-18T12:25:33.207Z,16.50
2019-05-18T12:28:07.415Z,16.60
2019-05-18T12:40:57.395Z,16.60
2019-05-18T12:48:53.012Z,16.90
2019-05-18T13:25:08.716Z,18.60
2019-05-18T13:28:35.993Z,18.10
2019-05-18T13:31:48.093Z,17.90
2019-05-18T13:35:18.046Z,17.80
2019-05-18T13:49:52.015Z,18.60
2019-05-18T13:56:30.792Z,18.80
2019-05-18T14:35:22.772Z,19.40
2019-05-18T14:41:42.558Z,19.30
2019-05-18T14:52:31.960Z,19.40
2019-05-18T15:46:13.093Z,19.80
2019-05-18T15:48:50.990Z,19.60
2019-05-18T16:06:04.112Z,19.00
2019-05-18T16:23:20.139Z,18.60
2019-05-18T16:30:50.831Z,18.40
2019-05-18T16:35:10.902Z,18.40
2019-05-18T16:36:55.404Z,18.40
2019-05-18T16:53:51.366Z,17.90
2019-05-18T17:04:56.918Z,17.70
2019-05-18T17:12:02.312Z,17.60
2019-05-18T17:14:28.122Z,17.40
2019-05-18T17:17:21.924Z,17.20
2019-05-18T17:19:55.665Z,17.10
2019-05-18T17:22:31.557Z,17.00
2019-05-18T17:25:34.948Z,17.00
2019-05-18T17:28:39.596Z,17.00
2019-05-18T17:31:17.199Z,16.90
2019-05-18T17:34:36.508Z,16.80
2019-05-18T17:40:34.190Z,16.50
2019-05-18T17:43:41.740Z,16.50
2019-05-18T17:50:35.118Z,16.50
2019-05-18T17:57:16.344Z,16.60
2019-05-18T18:00:34.253Z,16.40
2019-05-18T18:26:23.178Z,15.80
2019-05-18T18:29:32.963Z,15.80
2019-05-18T18:32:24.704Z,15.90
2019-05-18T18:35:41.409Z,15.90
2019-05-18T18:41:20.393Z,15.70
2019-05-18T18:44:11.483Z,15.40
2019-05-18T18:47:12.641Z,15.30
2019-05-18T18:49:51.672Z,15.30
2019-05-18T18:52:21.034Z,15.30
2019-05-18T18:54:59.739Z,15.30
2019-05-18T18:57:39.998Z,15.30
2019-05-18T19:00:00.197Z,15.30
2019-05-18T19:02:53.437Z,15.30
2019-05-18T19:05:24.847Z,15.20
2019-05-18T19:10:49.891Z,15.10
2019-05-18T19:13:25.921Z,15.00
2019-05-18T19:15:54.937Z,14.90
2019-05-18T19:18:28.176Z,14.90
2019-05-18T19:21:10.810Z,15.00
2019-05-18T19:23:39.941Z,15.00
2019-05-18T19:26:15.387Z,15.00
2019-05-18T19:28:49.844Z,15.00
2019-05-18T19:31:27.170Z,14.70
2019-05-18T19:33:57.297Z,14.70
2019-05-18T19:36:29.706Z,14.60
2019-05-18T19:39:07.435Z,14.40
2019-05-18T19:41:36.259Z,14.30
2019-05-18T19:44:11.693Z,14.30
2019-05-18T19:47:19.055Z,14.30
2019-05-18T19:50:25.690Z,14.20
2019-05-18T19:52:54.523Z,14.10
2019-05-18T19:55:23.639Z,14.10
2019-05-18T19:58:09.479Z,14.10
2019-05-18T20:00:44.541Z,14.10
2019-05-18T20:03:13.579Z,14.20
2019-05-18T20:05:43.985Z,14.20
2019-05-18T20:08:15.413Z,14.30
2019-05-18T20:10:44.489Z,14.30
2019-05-18T20:13:12.840Z,14.30
2019-05-18T20:15:41.534Z,14.30
2019-05-18T20:18:13.053Z,14.30
2019-05-18T20:20:41.571Z,14.30
2019-05-18T20:23:16.665Z,14.30
2019-05-18T20:25:47.279Z,14.30
2019-05-18T20:28:23.733Z,14.30
2019-05-18T20:30:49.815Z,14.30
2019-05-18T20:33:21.595Z,14.30
2019-05-18T20:35:59.314Z,14.20
2019-05-18T20:38:28.120Z,14.10
2019-05-18T20:40:56.665Z,13.90
2019-05-18T20:43:30.116Z,13.90
2019-05-18T20:46:01.033Z,13.90
2019-05-18T20:48:29.930Z,13.80
2019-05-18T20:51:00.106Z,13.70
2019-05-18T20:53:40.972Z,13.70
2019-05-18T20:56:11.282Z,13.60
2019-05-18T20:58:46.298Z,13.60
2019-05-18T21:01:23.624Z,13.60
2019-05-18T21:03:55.937Z,13.60
2019-05-18T21:06:29.317Z,13.50
2019-05-18T21:09:09.927Z,13.40
2019-05-18T21:12:09.725Z,13.20
2019-05-18T21:15:15.193Z,13.00
2019-05-18T21:18:28.199Z,12.90
2019-05-18T21:21:05.541Z,12.90
2019-05-18T21:27:00.278Z,12.90
2019-05-18T21:33:08.275Z,12.90
2019-05-18T21:35:44.663Z,12.80
2019-05-18T21:38:13.534Z,12.60
2019-05-18T21:40:47.642Z,12.30
2019-05-18T21:43:35.799Z,12.20
2019-05-18T21:46:09.227Z,12.10
2019-05-18T21:48:46.872Z,12.10
2019-05-18T21:51:28.757Z,12.00
2019-05-18T21:54:01.756Z,12.00
2019-05-18T21:56:42.737Z,11.80
2019-05-18T21:59:12.415Z,11.80
2019-05-18T22:01:43.665Z,11.80
2019-05-18T22:04:39.160Z,11.80
2019-05-18T22:07:06.881Z,11.70
2019-05-18T22:09:34.721Z,11.60
2019-05-18T22:12:02.381Z,11.60
2019-05-18T22:14:29.918Z,11.50
2019-05-18T22:16:57.661Z,11.40
2019-05-18T22:19:25.290Z,11.30
2019-05-18T22:21:53.050Z,11.20
2019-05-18T22:24:20.742Z,11.00
2019-05-18T22:26:49.640Z,10.80
2019-05-18T22:29:17.118Z,10.80
2019-05-18T22:31:44.866Z,10.70
2019-05-18T22:34:12.719Z,10.60
2019-05-18T22:36:40.525Z,10.50
2019-05-18T22:39:11.703Z,10.40
2019-05-18T22:41:39.553Z,10.40
2019-05-18T22:44:10.484Z,10.40
2019-05-18T22:46:38.272Z,10.50
2019-05-18T22:49:07.021Z,10.60
2019-05-18T22:51:41.951Z,10.80
2019-05-18T22:54:43.803Z,10.80
2019-05-18T22:57:15.411Z,10.90
2019-05-18T22:59:43.493Z,11.20
2019-05-18T23:02:11.543Z,11.40
2019-05-18T23:07:46.804Z,11.70
2019-05-18T23:10:15.213Z,11.80
2019-05-18T23:12:48.944Z,11.80
2019-05-18T23:15:16.716Z,11.90
2019-05-18T23:17:44.513Z,12.10
2019-05-18T23:20:14.872Z,12.10
2019-05-18T23:22:50.687Z,12.10
2019-05-18T23:25:18.694Z,12.10
2019-05-18T23:27:52.180Z,12.20
2019-05-18T23:30:20.410Z,12.20
2019-05-18T23:32:57.838Z,12.10
2019-05-18T23:35:25.405Z,12.20
2019-05-18T23:37:53.066Z,12.40
2019-05-18T23:40:37.306Z,12.40
2019-05-18T23:43:10.731Z,12.40
2019-05-18T23:45:46.862Z,12.40
2019-05-18T23:48:17.981Z,12.50
2019-05-18T23:50:47.212Z,12.50
2019-05-18T23:53:23.758Z,12.50
2019-05-18T23:55:51.488Z,12.50
2019-05-18T23:58:19.714Z,12.50
